Grove, United Kingdom
Current Conditions -  °F | °C
As of 9:50 AM on Monday 22 Dec 2014 (Local Time) from EGVN Reporting Station
Drizzle Drizzle  
Wind Chill: 12°   Ceiling: 1800
Heat Index: 12°   Visibility: 6mi
Dew Point:   Wind: 16mph
Humidity: 82%   Direction: 250°WSW
Pressure: 30.03"   Gusts: 31mph
Location:  51.61°N, 1.42°W
Report Text: EGVN 220950Z 25014G27KT 9999 -DZ SCT012 OVC018 12/09 Q1017 BECMG SCT020
Loading
Personal Weather Stations






























Interactive Weather Map New forecast layout! Learn more

10-Day Weather Forecast

Advertisements
Track Severe Weather on mobile